createdAt,value
2016-07-24T00:00:32.469Z,19.59
2016-07-24T00:01:32.492Z,19.5
2016-07-24T00:02:32.520Z,19.56
2016-07-24T00:03:33.244Z,19.56
2016-07-24T00:04:32.576Z,19.63
2016-07-24T00:05:32.613Z,19.56
2016-07-24T00:06:32.633Z,19.55
2016-07-24T00:07:32.656Z,19.61
2016-07-24T00:08:32.678Z,19.58
2016-07-24T00:09:47.637Z,19.61
2016-07-24T00:10:47.665Z,19.58
2016-07-24T00:11:32.766Z,19.55
2016-07-24T00:12:32.811Z,19.58
2016-07-24T00:13:32.832Z,19.54
2016-07-24T00:14:47.769Z,19.56
2016-07-24T00:15:33.580Z,19.59
2016-07-24T00:16:32.903Z,19.5
2016-07-24T00:17:32.939Z,19.56
2016-07-24T00:18:32.958Z,19.46
2016-07-24T00:19:33.044Z,19.54
2016-07-24T00:20:33.011Z,19.39
2016-07-24T00:21:33.038Z,19.47
2016-07-24T00:22:33.066Z,19.55
2016-07-24T00:24:33.138Z,19.5
2016-07-24T00:25:33.157Z,19.48
2016-07-24T00:26:33.172Z,19.5
2016-07-24T00:27:33.225Z,19.54
2016-07-24T00:28:33.230Z,19.43
2016-07-24T00:29:33.271Z,19.36
2016-07-24T00:30:48.210Z,19.4
2016-07-24T00:31:33.320Z,19.39
2016-07-24T00:32:33.336Z,19.39
2016-07-24T00:33:33.372Z,19.41
2016-07-24T00:34:33.396Z,19.4
2016-07-24T00:36:33.450Z,19.33
2016-07-24T00:37:33.479Z,19.4
2016-07-24T00:38:33.510Z,19.43
2016-07-24T00:39:33.533Z,19.36
2016-07-24T00:41:33.584Z,19.31
2016-07-24T00:42:48.540Z,19.36
2016-07-24T00:43:33.653Z,19.29
2016-07-24T00:45:33.695Z,19.18
2016-07-24T00:46:48.644Z,19.16
2016-07-24T00:47:33.754Z,19.28
2016-07-24T00:48:33.780Z,19.18
2016-07-24T00:49:33.802Z,19.25
2016-07-24T00:50:33.879Z,19.23
2016-07-24T00:51:33.868Z,19.23
2016-07-24T00:52:33.891Z,19.28
2016-07-24T00:53:33.919Z,19.32
2016-07-24T00:54:33.956Z,19.22
2016-07-24T00:55:33.983Z,19.19
2016-07-24T00:56:34.000Z,19.29
2016-07-24T00:57:34.032Z,19.21
2016-07-24T00:58:34.054Z,19.22
2016-07-24T00:59:34.078Z,19.16
2016-07-24T01:00:49.030Z,19.18
2016-07-24T01:01:34.128Z,19.13
2016-07-24T01:02:49.088Z,19.19
2016-07-24T01:03:49.112Z,19.16
2016-07-24T01:04:34.220Z,19.19
2016-07-24T01:05:34.249Z,19.26
2016-07-24T01:06:34.270Z,19.22
2016-07-24T01:07:34.300Z,19.22
2016-07-24T01:08:34.327Z,19.25
2016-07-24T01:09:35.062Z,19.18
2016-07-24T01:10:34.381Z,19.21
2016-07-24T01:11:34.409Z,19.07
2016-07-24T01:12:34.436Z,19.19
2016-07-24T01:13:34.459Z,19.14
2016-07-24T01:14:34.486Z,19.14
2016-07-24T01:15:34.519Z,19.1
2016-07-24T01:16:34.536Z,19.1
2016-07-24T01:17:34.569Z,19.13
2016-07-24T01:18:49.516Z,19.04
2016-07-24T01:19:34.633Z,19.06
2016-07-24T01:20:34.652Z,19
2016-07-24T01:21:34.731Z,18.98
2016-07-24T01:22:34.702Z,18.98
2016-07-24T01:23:34.737Z,19
2016-07-24T01:24:34.763Z,19.04
2016-07-24T01:25:34.792Z,18.95
2016-07-24T01:26:34.811Z,19
2016-07-24T01:27:34.839Z,18.91
2016-07-24T01:28:34.864Z,18.91
2016-07-24T01:30:34.923Z,18.98
2016-07-24T01:31:34.949Z,18.98
2016-07-24T01:32:34.979Z,18.95
2016-07-24T01:33:49.929Z,18.87
2016-07-24T01:34:35.031Z,18.91
2016-07-24T01:35:35.058Z,18.95
2016-07-24T01:36:35.090Z,19
2016-07-24T01:37:35.120Z,18.91
2016-07-24T01:38:35.143Z,18.9
2016-07-24T01:39:35.169Z,18.92
2016-07-24T01:40:35.197Z,18.87
2016-07-24T01:42:35.258Z,18.88
2016-07-24T01:44:35.313Z,18.85
2016-07-24T01:45:50.258Z,18.88
2016-07-24T01:47:35.387Z,18.75
2016-07-24T01:48:50.339Z,18.85
2016-07-24T01:49:50.364Z,18.82
2016-07-24T01:50:50.390Z,18.85
2016-07-24T01:51:36.203Z,18.81
2016-07-24T01:52:35.524Z,18.88
2016-07-24T01:53:35.553Z,18.91
2016-07-24T01:54:35.571Z,18.82
2016-07-24T01:55:35.611Z,18.73
2016-07-24T01:56:35.631Z,18.72
2016-07-24T01:57:35.667Z,18.82
2016-07-24T01:58:35.679Z,18.73
2016-07-24T01:59:50.641Z,18.73
2016-07-24T02:00:35.743Z,18.85
2016-07-24T02:01:35.766Z,18.85
2016-07-24T02:02:35.800Z,18.84
2016-07-24T02:03:35.833Z,18.81
2016-07-24T02:04:35.854Z,18.91
2016-07-24T02:05:50.799Z,18.9
2016-07-24T02:06:35.912Z,18.9
2016-07-24T02:07:35.931Z,18.87
2016-07-24T02:08:35.959Z,18.91
2016-07-24T02:09:35.985Z,18.85
2016-07-24T02:10:36.009Z,18.92
2016-07-24T02:11:36.739Z,18.94
2016-07-24T02:12:36.068Z,18.87
2016-07-24T02:13:36.089Z,18.85
2016-07-24T02:14:36.132Z,18.9
2016-07-24T02:15:36.148Z,18.82
2016-07-24T02:16:36.180Z,18.87
2016-07-24T02:17:36.211Z,18.87
2016-07-24T02:18:36.241Z,18.8
2016-07-24T02:19:36.249Z,18.81
2016-07-24T02:20:36.282Z,18.84
2016-07-24T02:21:51.236Z,18.8
2016-07-24T02:22:36.341Z,18.76
2016-07-24T02:23:36.365Z,18.73
2016-07-24T02:24:36.393Z,18.67
2016-07-24T02:25:36.420Z,18.72
2016-07-24T02:26:36.448Z,18.76
2016-07-24T02:27:36.468Z,18.66
2016-07-24T02:28:36.511Z,18.69
2016-07-24T02:29:36.523Z,18.69
2016-07-24T02:30:36.554Z,18.69
2016-07-24T02:31:36.579Z,18.7
2016-07-24T02:32:36.613Z,18.58
2016-07-24T02:34:36.659Z,18.6
2016-07-24T02:35:36.693Z,18.63
2016-07-24T02:36:36.715Z,18.58
2016-07-24T02:37:51.670Z,18.62
2016-07-24T02:38:36.770Z,18.63
2016-07-24T02:39:36.798Z,18.63
2016-07-24T02:40:36.815Z,18.65
2016-07-24T02:41:36.850Z,18.55
2016-07-24T02:42:36.878Z,18.63
2016-07-24T02:43:36.911Z,18.65
2016-07-24T02:44:36.935Z,18.57
2016-07-24T02:45:36.960Z,18.6
2016-07-24T02:46:36.993Z,18.5
2016-07-24T02:47:51.942Z,18.48
2016-07-24T02:48:37.045Z,18.54
2016-07-24T02:49:37.064Z,18.45
2016-07-24T02:50:52.022Z,18.35
2016-07-24T02:51:37.130Z,18.45
2016-07-24T02:52:37.152Z,18.42
2016-07-24T02:53:52.097Z,18.37
2016-07-24T02:54:37.202Z,18.41
2016-07-24T02:55:37.227Z,18.35
2016-07-24T02:56:37.252Z,18.42
2016-07-24T02:57:37.280Z,18.37
2016-07-24T02:58:37.313Z,18.39
2016-07-24T02:59:37.329Z,18.33
2016-07-24T03:00:37.360Z,18.39
2016-07-24T03:01:37.393Z,18.44
2016-07-24T03:02:37.415Z,18.44
2016-07-24T03:03:37.449Z,18.35
2016-07-24T03:04:37.480Z,18.33
2016-07-24T03:05:52.425Z,18.37
2016-07-24T03:06:37.527Z,18.35
2016-07-24T03:07:37.560Z,18.36
2016-07-24T03:08:52.503Z,18.35
2016-07-24T03:09:37.605Z,18.29
2016-07-24T03:10:37.634Z,18.29
2016-07-24T03:11:37.664Z,18.32
2016-07-24T03:12:37.683Z,18.21
2016-07-24T03:13:37.716Z,18.37
2016-07-24T03:14:37.744Z,18.32
2016-07-24T03:15:37.772Z,18.39
2016-07-24T03:17:37.820Z,18.26
2016-07-24T03:18:37.855Z,18.32
2016-07-24T03:19:37.884Z,18.32
2016-07-24T03:20:37.904Z,18.29
2016-07-24T03:22:37.961Z,18.23
2016-07-24T03:23:37.988Z,18.29
2016-07-24T03:25:38.035Z,18.26
2016-07-24T03:26:38.062Z,18.29
2016-07-24T03:27:38.090Z,18.2
2016-07-24T03:28:38.172Z,18.3
2016-07-24T03:29:38.147Z,18.21
2016-07-24T03:30:38.888Z,18.27
2016-07-24T03:31:38.201Z,18.32
2016-07-24T03:32:38.233Z,18.29
2016-07-24T03:33:38.248Z,18.25
2016-07-24T03:34:38.293Z,18.29
2016-07-24T03:35:38.317Z,18.37
2016-07-24T03:36:38.333Z,18.39
2016-07-24T03:37:38.361Z,18.41
2016-07-24T03:38:38.390Z,18.32
2016-07-24T03:39:38.419Z,18.39
2016-07-24T03:40:53.362Z,18.41
2016-07-24T03:41:38.480Z,18.5
2016-07-24T03:42:38.492Z,18.36
2016-07-24T03:43:38.521Z,18.52
2016-07-24T03:44:38.550Z,18.51
2016-07-24T03:45:38.576Z,18.55
2016-07-24T03:46:38.605Z,18.6
2016-07-24T03:47:38.626Z,18.7
2016-07-24T03:48:38.659Z,18.75
2016-07-24T03:49:38.686Z,18.73
2016-07-24T03:50:38.714Z,18.75
2016-07-24T03:51:38.742Z,18.85
2016-07-24T03:52:38.758Z,18.9
2016-07-24T03:53:38.797Z,18.92
2016-07-24T03:54:53.745Z,18.91
2016-07-24T03:55:53.770Z,18.92
2016-07-24T03:56:53.793Z,18.91
2016-07-24T03:57:38.900Z,18.94
2016-07-24T03:58:38.923Z,18.91
2016-07-24T03:59:38.969Z,18.91
2016-07-24T04:00:38.977Z,18.94
2016-07-24T04:01:39.023Z,19.02
2016-07-24T04:02:39.034Z,19
2016-07-24T04:03:39.064Z,19.1
2016-07-24T04:04:39.085Z,19.16
2016-07-24T04:05:39.115Z,19.02
2016-07-24T04:06:39.140Z,19.06
2016-07-24T04:07:39.165Z,19.06
2016-07-24T04:08:39.192Z,19
2016-07-24T04:09:39.224Z,19.07
2016-07-24T04:10:39.251Z,19.06
2016-07-24T04:11:39.279Z,19.02
2016-07-24T04:12:54.226Z,19.06
2016-07-24T04:13:39.326Z,19.04
2016-07-24T04:14:39.356Z,19.13
2016-07-24T04:15:39.385Z,19.13
2016-07-24T04:16:39.412Z,19.13
2016-07-24T04:17:39.435Z,19.06
2016-07-24T04:18:39.464Z,19.19
2016-07-24T04:19:39.488Z,19.21
2016-07-24T04:20:39.522Z,19.33
2016-07-24T04:21:39.543Z,19.33
2016-07-24T04:23:39.596Z,19.46
2016-07-24T04:24:39.629Z,19.56
2016-07-24T04:25:39.653Z,19.62
2016-07-24T04:26:39.688Z,19.59
2016-07-24T04:28:54.707Z,19.59
2016-07-24T04:29:39.763Z,19.55
2016-07-24T04:30:39.792Z,19.54
2016-07-24T04:31:39.817Z,19.65
2016-07-24T04:32:39.839Z,19.65
2016-07-24T04:33:39.867Z,19.59
2016-07-24T04:34:39.899Z,19.71
2016-07-24T04:35:39.924Z,19.62
2016-07-24T04:36:39.955Z,19.68
2016-07-24T04:37:39.981Z,19.65
2016-07-24T04:38:40.002Z,19.61
2016-07-24T04:39:40.030Z,19.69
2016-07-24T04:41:55.014Z,19.81
2016-07-24T04:42:40.112Z,19.78
2016-07-24T04:43:55.073Z,19.73
2016-07-24T04:44:55.093Z,19.78
2016-07-24T04:45:40.199Z,19.78
2016-07-24T04:46:40.222Z,19.91
2016-07-24T04:47:40.254Z,19.87
2016-07-24T04:48:40.275Z,19.98
2016-07-24T04:49:40.306Z,20.03
2016-07-24T04:50:40.334Z,20.06
2016-07-24T04:51:40.360Z,20.1
2016-07-24T04:52:40.388Z,20.21
2016-07-24T04:53:40.422Z,20.21
2016-07-24T04:54:40.450Z,20.24
2016-07-24T04:55:40.468Z,20.31
2016-07-24T04:56:40.498Z,20.35
2016-07-24T04:57:40.530Z,20.23
2016-07-24T04:58:40.555Z,20.32
2016-07-24T04:59:40.586Z,20.23
2016-07-24T05:00:40.605Z,20.24
2016-07-24T05:01:40.659Z,20.28
2016-07-24T05:02:40.663Z,20.18
2016-07-24T05:03:40.709Z,20.21
2016-07-24T05:04:40.711Z,20.1
2016-07-24T05:05:40.747Z,20.14
2016-07-24T05:06:40.773Z,20.14
2016-07-24T05:07:40.797Z,20.2
2016-07-24T05:08:40.835Z,20.24
2016-07-24T05:09:55.783Z,20.39
2016-07-24T05:10:40.894Z,20.28
2016-07-24T05:11:40.913Z,20.33
2016-07-24T05:13:40.967Z,20.52
2016-07-24T05:14:40.991Z,20.52
2016-07-24T05:16:55.966Z,20.66
2016-07-24T05:17:41.081Z,20.58
2016-07-24T05:18:41.105Z,20.62
2016-07-24T05:19:41.125Z,20.61
2016-07-24T05:20:41.153Z,20.7
2016-07-24T05:21:41.186Z,20.72
2016-07-24T05:22:41.213Z,20.66
2016-07-24T05:23:41.243Z,20.69
2016-07-24T05:24:41.262Z,20.67
2016-07-24T05:25:41.305Z,20.8
2016-07-24T05:26:41.325Z,20.82
2016-07-24T05:27:56.278Z,20.91
2016-07-24T05:28:41.373Z,20.94
2016-07-24T05:29:41.415Z,20.91
2016-07-24T05:30:41.429Z,20.92
2016-07-24T05:31:56.382Z,20.79
2016-07-24T05:32:41.488Z,20.95
2016-07-24T05:33:41.516Z,20.94
2016-07-24T05:34:41.890Z,21.12
2016-07-24T05:35:41.570Z,20.92
2016-07-24T05:36:41.594Z,21.09
2016-07-24T05:37:41.623Z,21.04
2016-07-24T05:38:41.652Z,20.98
2016-07-24T05:39:41.678Z,20.91
2016-07-24T05:40:41.699Z,20.85
2016-07-24T05:41:41.730Z,20.84
2016-07-24T05:42:41.765Z,20.84
2016-07-24T05:43:41.788Z,20.88
2016-07-24T05:44:41.813Z,20.94
2016-07-24T05:45:41.848Z,20.92
2016-07-24T05:46:41.869Z,21.04
2016-07-24T05:47:56.829Z,21.19
2016-07-24T05:48:41.929Z,21.27
2016-07-24T05:49:41.955Z,21.43
2016-07-24T05:51:42.014Z,21.68
2016-07-24T05:52:42.037Z,21.92
2016-07-24T05:53:42.068Z,22.37
2016-07-24T05:54:42.099Z,22.8
2016-07-24T05:55:42.127Z,23.35
2016-07-24T05:56:42.157Z,23.91
2016-07-24T05:57:42.181Z,24.65
2016-07-24T05:58:42.210Z,25.24
2016-07-24T05:59:42.249Z,25.69
2016-07-24T06:00:42.267Z,25.85
2016-07-24T06:01:42.310Z,26.29
2016-07-24T06:02:42.324Z,26.52
2016-07-24T06:03:57.289Z,26.8
2016-07-24T06:04:57.317Z,26.94
2016-07-24T06:05:42.473Z,27.28
2016-07-24T06:06:57.377Z,27.29
2016-07-24T06:07:42.486Z,27.47
2016-07-24T06:08:42.519Z,27.44
2016-07-24T06:09:42.553Z,27.67
2016-07-24T06:10:42.586Z,28.03
2016-07-24T06:11:42.631Z,28.06
2016-07-24T06:12:42.650Z,28.18
2016-07-24T06:13:42.682Z,28.51
2016-07-24T06:14:42.711Z,28.93
2016-07-24T06:15:57.674Z,29.18
2016-07-24T06:16:42.779Z,28.56
2016-07-24T06:17:42.814Z,28.62
2016-07-24T06:18:57.770Z,28.48
2016-07-24T06:19:57.799Z,28.96
2016-07-24T06:20:42.910Z,28.83
2016-07-24T06:21:42.940Z,28.64
2016-07-24T06:22:42.969Z,28.09
2016-07-24T06:23:43.012Z,27.67
2016-07-24T06:24:43.040Z,27.04
2016-07-24T06:25:43.073Z,26.44
2016-07-24T06:26:43.105Z,26.1
2016-07-24T06:27:43.138Z,25.77
2016-07-24T06:28:43.171Z,25.72
2016-07-24T06:29:43.208Z,25.61
2016-07-24T06:30:43.239Z,25.72
2016-07-24T06:31:43.268Z,25.83
2016-07-24T06:32:43.299Z,25.72
2016-07-24T06:33:43.348Z,25.73
2016-07-24T06:34:58.337Z,25.99
2016-07-24T06:35:58.320Z,26.2
2016-07-24T06:36:43.427Z,25.87
2016-07-24T06:37:43.461Z,25.92
2016-07-24T06:38:43.491Z,26.06
2016-07-24T06:39:43.519Z,25.8
2016-07-24T06:40:43.563Z,25.99
2016-07-24T06:41:43.589Z,26.23
2016-07-24T06:42:43.623Z,26.26
2016-07-24T06:43:43.656Z,26.18
2016-07-24T06:44:43.684Z,26.29
2016-07-24T06:45:43.717Z,26.44
2016-07-24T06:46:43.801Z,26.69
2016-07-24T06:47:43.783Z,26.91
2016-07-24T06:48:58.739Z,27.1
2016-07-24T06:49:43.840Z,27.22
2016-07-24T06:50:58.798Z,27.36
2016-07-24T06:51:43.910Z,27.32
2016-07-24T06:52:58.863Z,27.39
2016-07-24T06:53:43.967Z,27.29
2016-07-24T06:55:44.732Z,27.63
2016-07-24T06:56:44.068Z,27.79
2016-07-24T06:57:44.111Z,27.66
2016-07-24T06:58:44.832Z,27.69
2016-07-24T06:59:44.165Z,27.66
2016-07-24T07:00:44.201Z,27.96
2016-07-24T07:01:44.236Z,28.03
2016-07-24T07:03:44.305Z,28.07
2016-07-24T07:04:44.330Z,27.97
2016-07-24T07:05:44.362Z,27.93
2016-07-24T07:06:59.321Z,27.37
2016-07-24T07:07:44.432Z,27.41
2016-07-24T07:08:44.460Z,27.46
2016-07-24T07:09:44.492Z,27.51
2016-07-24T07:10:44.522Z,27.59
2016-07-24T07:11:44.559Z,27.85
2016-07-24T07:12:44.594Z,28.09
2016-07-24T07:13:44.620Z,28.24
2016-07-24T07:14:44.658Z,28.7
2016-07-24T07:15:59.621Z,28.64
2016-07-24T07:16:44.728Z,28.67
2016-07-24T07:17:44.748Z,28.73
2016-07-24T07:18:45.486Z,29.02
2016-07-24T07:19:44.816Z,29.06
2016-07-24T07:20:44.853Z,29.37
2016-07-24T07:22:59.843Z,28.96
2016-07-24T07:23:44.962Z,28.8
2016-07-24T07:24:44.987Z,28.89
2016-07-24T07:25:45.013Z,29
2016-07-24T07:26:45.046Z,28.96
2016-07-24T07:27:45.095Z,28.41
2016-07-24T07:28:45.117Z,28.52
2016-07-24T07:29:45.151Z,28.41
2016-07-24T07:30:45.181Z,28.52
2016-07-24T07:32:45.247Z,28.81
2016-07-24T07:33:45.284Z,29
2016-07-24T07:35:00.242Z,28.68
2016-07-24T07:35:45.394Z,28.59
2016-07-24T07:36:45.381Z,28.76
2016-07-24T07:37:45.414Z,28.77
2016-07-24T07:39:00.369Z,28.71
2016-07-24T07:40:45.512Z,29.02
2016-07-24T07:41:45.545Z,29.02
2016-07-24T07:42:45.581Z,29.06
2016-07-24T07:43:45.609Z,29.46
2016-07-24T07:44:45.640Z,29.51
2016-07-24T07:45:45.679Z,29.33
2016-07-24T07:46:45.706Z,29.45
2016-07-24T07:47:45.744Z,29.43
2016-07-24T07:48:45.769Z,29.7
2016-07-24T07:49:45.812Z,30.01
2016-07-24T07:50:45.897Z,30.02
2016-07-24T07:51:45.872Z,29.85
2016-07-24T07:52:45.907Z,29.8
2016-07-24T07:54:00.869Z,29.94
2016-07-24T07:54:45.981Z,30.17
2016-07-24T07:55:46.009Z,30.16
2016-07-24T07:56:46.044Z,29.95
2016-07-24T07:57:46.071Z,29.58
2016-07-24T07:58:46.105Z,29.57
2016-07-24T07:59:46.143Z,29.7
2016-07-24T08:00:46.178Z,29.85
2016-07-24T08:01:46.203Z,29.95
2016-07-24T08:02:46.243Z,30.16
2016-07-24T08:03:46.271Z,30.45
2016-07-24T08:04:46.302Z,30.31
2016-07-24T08:05:46.344Z,30.16
2016-07-24T08:06:46.380Z,29.94
2016-07-24T08:09:46.476Z,29.82
2016-07-24T08:10:46.502Z,29.55
2016-07-24T08:11:46.538Z,29.31
2016-07-24T08:12:46.571Z,29.04
2016-07-24T08:13:46.604Z,28.83
2016-07-24T08:14:46.636Z,29.24
2016-07-24T08:15:46.672Z,29.57
2016-07-24T08:16:46.709Z,29.43
2016-07-24T08:17:46.739Z,29.08
2016-07-24T08:18:46.765Z,29.24
2016-07-24T08:19:46.814Z,29.05
2016-07-24T08:20:46.832Z,28.67
2016-07-24T08:21:46.864Z,28.59
2016-07-24T08:22:46.898Z,28.64
2016-07-24T08:23:46.930Z,28.58
2016-07-24T08:24:46.966Z,28.51
2016-07-24T08:26:01.928Z,28.77
2016-07-24T08:26:47.036Z,29.08
2016-07-24T08:28:47.097Z,29.28
2016-07-24T08:29:47.129Z,29.06
2016-07-24T08:30:47.163Z,28.96
2016-07-24T08:31:47.193Z,28.77
2016-07-24T08:32:47.920Z,28.29
2016-07-24T08:34:47.298Z,28.17
2016-07-24T08:35:47.325Z,27.96
2016-07-24T08:36:47.356Z,28.09
2016-07-24T08:38:02.320Z,28.34
2016-07-24T08:39:02.353Z,28.52
2016-07-24T08:39:47.469Z,28.51
2016-07-24T08:42:02.457Z,28.9
2016-07-24T08:42:47.564Z,28.96
2016-07-24T08:43:47.589Z,28.68
2016-07-24T08:44:47.626Z,28.7
2016-07-24T08:45:47.653Z,28.46
2016-07-24T08:46:47.683Z,28.59
2016-07-24T08:47:47.721Z,28.43
2016-07-24T08:48:47.752Z,28.52
2016-07-24T08:50:47.820Z,28.54
2016-07-24T08:51:47.847Z,28.76
2016-07-24T08:53:02.809Z,28.86
2016-07-24T08:53:47.928Z,29.05
2016-07-24T08:54:47.943Z,29.34
2016-07-24T08:55:47.982Z,29.55
2016-07-24T08:56:48.013Z,29.65
2016-07-24T08:58:02.965Z,29.74
2016-07-24T08:59:02.998Z,30
2016-07-24T08:59:48.157Z,29.9
2016-07-24T09:00:48.141Z,29.64
2016-07-24T09:01:48.173Z,29.12
2016-07-24T09:02:48.203Z,29.12
2016-07-24T09:03:48.237Z,29.27
2016-07-24T09:04:48.273Z,29.37
2016-07-24T09:05:48.298Z,29.33
2016-07-24T09:06:48.336Z,29.58
2016-07-24T09:07:48.370Z,29.58
2016-07-24T09:08:48.396Z,29.71
2016-07-24T09:09:48.448Z,29.18
2016-07-24T09:10:48.459Z,29.16
2016-07-24T09:11:48.497Z,29.41
2016-07-24T09:12:48.529Z,29.52
2016-07-24T09:14:03.483Z,29.57
2016-07-24T09:14:48.589Z,29.23
2016-07-24T09:15:48.620Z,29.12
2016-07-24T09:16:48.659Z,29.11
2016-07-24T09:18:48.720Z,28.96
2016-07-24T09:19:48.753Z,29.36
2016-07-24T09:20:48.781Z,29.37
2016-07-24T09:21:48.823Z,29.61
2016-07-24T09:22:48.853Z,29.57
2016-07-24T09:23:48.880Z,29.6
2016-07-24T09:24:48.916Z,29.57
2016-07-24T09:25:48.951Z,29.58
2016-07-24T09:27:49.010Z,29.57
2016-07-24T09:29:03.975Z,29.85
2016-07-24T09:30:04.004Z,29.92
2016-07-24T09:30:49.119Z,30.07
2016-07-24T09:31:49.145Z,29.83
2016-07-24T09:32:49.181Z,29.52
2016-07-24T09:33:49.212Z,29.34
2016-07-24T09:34:49.239Z,29
2016-07-24T09:35:49.271Z,29.14
2016-07-24T09:36:49.309Z,29.14
2016-07-24T09:37:49.339Z,29.57
2016-07-24T09:38:49.368Z,30
2016-07-24T09:39:49.403Z,30
2016-07-24T09:40:49.437Z,30.13
2016-07-24T09:42:49.557Z,31.14
2016-07-24T09:43:49.534Z,31.32
2016-07-24T09:44:49.570Z,31.21
2016-07-24T09:45:49.601Z,31.36
2016-07-24T09:46:49.629Z,31.17
2016-07-24T09:47:49.663Z,30.89
2016-07-24T09:48:49.694Z,30.46
2016-07-24T09:49:49.729Z,30.29
2016-07-24T09:50:49.763Z,30.17
2016-07-24T09:51:49.801Z,30.42
2016-07-24T09:52:49.830Z,30.23
2016-07-24T09:53:49.860Z,30.47
2016-07-24T09:54:49.895Z,30.49
2016-07-24T09:55:49.928Z,30.8
2016-07-24T09:56:49.955Z,30.8
2016-07-24T09:58:04.917Z,30.38
2016-07-24T09:58:50.029Z,30.13
2016-07-24T09:59:50.051Z,30.16
2016-07-24T10:01:05.014Z,30.08
2016-07-24T10:01:50.174Z,30.45
2016-07-24T10:02:50.152Z,30.72
2016-07-24T10:03:50.187Z,30.79
2016-07-24T10:04:50.222Z,31.23
2016-07-24T10:05:50.251Z,31.44
2016-07-24T10:06:50.283Z,31.25
2016-07-24T10:07:50.320Z,31.44
2016-07-24T10:08:50.615Z,31.44
2016-07-24T10:09:50.381Z,31.16
2016-07-24T10:10:50.414Z,31.46
2016-07-24T10:11:50.454Z,31.81
2016-07-24T10:13:05.408Z,31.7
2016-07-24T10:13:50.503Z,31.78
2016-07-24T10:14:50.540Z,31.56
2016-07-24T10:15:50.578Z,32.03
2016-07-24T10:17:05.539Z,32.13
2016-07-24T10:17:50.644Z,32.32
2016-07-24T10:18:50.696Z,32.88
2016-07-24T10:19:50.707Z,32.93
2016-07-24T10:20:50.741Z,33.03
2016-07-24T10:21:50.777Z,33.04
2016-07-24T10:22:50.804Z,33.18
2016-07-24T10:23:50.840Z,33.31
2016-07-24T10:24:50.871Z,33.12
2016-07-24T10:25:50.906Z,33.42
2016-07-24T10:26:50.936Z,33.56
2016-07-24T10:27:50.969Z,33.63
2016-07-24T10:29:51.037Z,33.79
2016-07-24T10:30:51.065Z,34.08
2016-07-24T10:33:06.059Z,32.77
2016-07-24T10:33:51.161Z,32.93
2016-07-24T10:34:51.201Z,33.04
2016-07-24T10:35:51.241Z,32.82
2016-07-24T10:36:51.263Z,32.55
2016-07-24T10:37:51.301Z,31.86
2016-07-24T10:38:51.330Z,31.8
2016-07-24T10:39:51.364Z,31.56
2016-07-24T10:40:51.393Z,31.48
2016-07-24T10:41:51.432Z,31.57
2016-07-24T10:42:51.465Z,31.57
2016-07-24T10:44:51.531Z,31.63
2016-07-24T10:45:51.568Z,31.95
2016-07-24T10:47:51.634Z,32.28
2016-07-24T10:49:06.586Z,32.23
2016-07-24T10:49:51.697Z,32.25
2016-07-24T10:50:51.728Z,32.41
2016-07-24T10:51:51.759Z,32.22
2016-07-24T10:52:51.795Z,32.22
2016-07-24T10:53:51.828Z,32.23
2016-07-24T10:54:51.858Z,32.55
2016-07-24T10:55:51.888Z,32.66
2016-07-24T10:56:51.922Z,32.28
2016-07-24T10:57:51.970Z,32.14
2016-07-24T10:58:51.990Z,32.11
2016-07-24T10:59:52.024Z,32.26
2016-07-24T11:00:52.055Z,31.89
2016-07-24T11:01:52.092Z,32.08
2016-07-24T11:02:52.126Z,32.29
2016-07-24T11:04:07.078Z,32.22
2016-07-24T11:05:07.111Z,32.13
2016-07-24T11:05:52.223Z,32.21
2016-07-24T11:06:52.254Z,32.13
2016-07-24T11:07:52.282Z,32.3
2016-07-24T11:08:52.323Z,32.28
2016-07-24T11:10:52.389Z,31.75
2016-07-24T11:13:52.483Z,31.47
2016-07-24T11:15:52.546Z,31.44
2016-07-24T11:17:07.506Z,31.51
2016-07-24T11:17:52.613Z,31.48
2016-07-24T11:18:52.651Z,31.69
2016-07-24T11:19:52.678Z,31.92
2016-07-24T11:20:52.708Z,32.18
2016-07-24T11:22:52.789Z,31.38
2016-07-24T11:23:52.803Z,31.54
2016-07-24T11:24:52.846Z,31.61
2016-07-24T11:25:52.876Z,31.73
2016-07-24T11:26:52.909Z,31.86
2016-07-24T11:27:52.934Z,31.88
2016-07-24T11:28:52.968Z,31.75
2016-07-24T11:29:53.008Z,31.58
2016-07-24T11:31:53.066Z,31.09
2016-07-24T11:32:53.102Z,31.02
2016-07-24T11:33:53.130Z,30.88
2016-07-24T11:34:53.166Z,30.82
2016-07-24T11:36:08.125Z,30.7
2016-07-24T11:36:53.236Z,30.77
2016-07-24T11:37:53.265Z,30.89
2016-07-24T11:38:53.302Z,30.94
2016-07-24T11:39:53.327Z,30.94
2016-07-24T11:40:53.359Z,30.99
2016-07-24T11:41:53.397Z,30.89
2016-07-24T11:42:53.428Z,30.7
2016-07-24T11:43:53.459Z,30.57
2016-07-24T11:44:53.491Z,30.31
2016-07-24T11:45:53.519Z,30
2016-07-24T11:46:53.556Z,29.71
2016-07-24T11:47:54.281Z,29.37
2016-07-24T11:49:08.548Z,29.33
2016-07-24T11:49:53.649Z,29.57
2016-07-24T11:50:53.684Z,29.82
2016-07-24T11:52:08.641Z,30.01
2016-07-24T11:52:53.796Z,29.87
2016-07-24T11:54:08.704Z,29.78
2016-07-24T11:54:53.811Z,30.1
2016-07-24T11:55:53.846Z,30.38
2016-07-24T11:56:53.873Z,30.79
2016-07-24T11:57:53.908Z,31.02
2016-07-24T11:58:53.939Z,31.12
2016-07-24T12:00:54.007Z,31.48
2016-07-24T12:01:54.083Z,31.26
2016-07-24T12:02:54.067Z,31.35
2016-07-24T12:03:54.102Z,31.2
2016-07-24T12:05:09.064Z,31.14
2016-07-24T12:06:54.201Z,30.79
2016-07-24T12:08:09.152Z,30.72
2016-07-24T12:08:54.264Z,30.8
2016-07-24T12:09:54.294Z,30.8
2016-07-24T12:10:54.325Z,30.43
2016-07-24T12:11:54.358Z,30.29
2016-07-24T12:12:54.392Z,30.47
2016-07-24T12:13:54.420Z,30.31
2016-07-24T12:14:54.462Z,30.29
2016-07-24T12:15:54.485Z,30.37
2016-07-24T12:16:54.515Z,30.67
2016-07-24T12:17:54.550Z,30.75
2016-07-24T12:18:54.579Z,30.84
2016-07-24T12:19:54.612Z,30.99
2016-07-24T12:21:09.581Z,31.14
2016-07-24T12:21:54.677Z,31.07
2016-07-24T12:24:09.674Z,30.8
2016-07-24T12:24:54.778Z,30.72
2016-07-24T12:25:54.806Z,30.53
2016-07-24T12:27:09.763Z,30.49
2016-07-24T12:27:54.880Z,30.31
2016-07-24T12:28:54.907Z,29.97
2016-07-24T12:29:54.935Z,30
2016-07-24T12:30:54.969Z,30.1
2016-07-24T12:31:55.003Z,30.16
2016-07-24T12:32:55.030Z,30.08
2016-07-24T12:34:55.099Z,30.15
2016-07-24T12:35:55.127Z,30.26
2016-07-24T12:36:55.170Z,30.24
2016-07-24T12:37:55.209Z,30.1
2016-07-24T12:39:10.152Z,30.11
2016-07-24T12:40:10.183Z,30.24
2016-07-24T12:40:55.293Z,30.47
2016-07-24T12:41:55.325Z,30.55
2016-07-24T12:42:55.354Z,30.6
2016-07-24T12:43:55.387Z,30.75
2016-07-24T12:44:55.414Z,30.72
2016-07-24T12:45:55.450Z,30.65
2016-07-24T12:46:55.482Z,30.91
2016-07-24T12:48:10.445Z,31.16
2016-07-24T12:48:55.552Z,31.1
2016-07-24T12:49:55.581Z,31.07
2016-07-24T12:51:10.538Z,31.02
2016-07-24T12:51:55.636Z,31.16
2016-07-24T12:52:55.726Z,31.48
2016-07-24T12:53:55.708Z,31.57
2016-07-24T12:54:55.742Z,31.73
2016-07-24T12:55:55.767Z,31.68
2016-07-24T12:56:55.804Z,31.44
2016-07-24T12:57:55.831Z,31.7
2016-07-24T12:58:55.863Z,31.78
2016-07-24T12:59:55.901Z,31.93
2016-07-24T13:00:55.927Z,31.96
2016-07-24T13:01:55.962Z,31.81
2016-07-24T13:02:55.996Z,31.86
2016-07-24T13:03:56.033Z,32.11
2016-07-24T13:04:56.058Z,32.13
2016-07-24T13:05:56.098Z,31.91
2016-07-24T13:06:56.123Z,31.99
2016-07-24T13:08:11.083Z,31.73
2016-07-24T13:08:56.194Z,31.51
2016-07-24T13:09:56.222Z,31.38
2016-07-24T13:11:11.176Z,30.58
2016-07-24T13:11:56.282Z,30.29
2016-07-24T13:12:56.315Z,30.15
2016-07-24T13:13:56.349Z,30.13
2016-07-24T13:14:56.384Z,30.31
2016-07-24T13:15:56.415Z,30.27
2016-07-24T13:16:56.444Z,30.51
2016-07-24T13:17:56.472Z,30.53
2016-07-24T13:18:56.511Z,30.42
2016-07-24T13:19:56.547Z,30.46
2016-07-24T13:20:56.577Z,30.31
2016-07-24T13:21:56.608Z,30.17
2016-07-24T13:22:56.639Z,30.05
2016-07-24T13:23:56.665Z,30.08
2016-07-24T13:25:56.732Z,29.95
2016-07-24T13:27:11.690Z,29.83
2016-07-24T13:27:56.795Z,29.92
2016-07-24T13:28:56.834Z,29.86
2016-07-24T13:29:56.861Z,29.86
2016-07-24T13:30:56.897Z,29.63
2016-07-24T13:31:56.930Z,29.58
2016-07-24T13:32:56.958Z,29.57
2016-07-24T13:33:57.194Z,29.46
2016-07-24T13:34:57.021Z,29.43
2016-07-24T13:35:57.045Z,29.6
2016-07-24T13:36:57.079Z,29.76
2016-07-24T13:40:12.103Z,30.69
2016-07-24T13:40:57.209Z,30.76
2016-07-24T13:41:57.244Z,30.95
2016-07-24T13:43:12.199Z,30.84
2016-07-24T13:43:57.309Z,30.91
2016-07-24T13:44:57.348Z,30.72
2016-07-24T13:45:57.368Z,30.62